createdAt,value
2022-08-27T00:00:50.036Z,1006.21
2022-08-27T00:01:50.136Z,1006.23
2022-08-27T00:02:50.025Z,1006.22
2022-08-27T00:03:50.095Z,1006.22
2022-08-27T00:04:49.993Z,1006.21
2022-08-27T00:05:49.979Z,1006.21
2022-08-27T00:06:49.971Z,1006.21
2022-08-27T00:07:49.969Z,1006.19
2022-08-27T00:08:49.947Z,1006.18
2022-08-27T00:09:49.968Z,1006.19
2022-08-27T00:10:49.924Z,1006.15
2022-08-27T00:11:49.912Z,1006.17
2022-08-27T00:12:49.919Z,1006.15
2022-08-27T00:13:49.910Z,1006.14
2022-08-27T00:14:49.886Z,1006.13
2022-08-27T00:15:50.071Z,1006.17
2022-08-27T00:16:49.938Z,1006.11
2022-08-27T00:17:49.849Z,1006.10
2022-08-27T00:18:49.852Z,1006.12
2022-08-27T00:19:49.827Z,1006.13
2022-08-27T00:20:49.808Z,1006.09
2022-08-27T00:21:49.804Z,1006.05
2022-08-27T00:22:49.802Z,1005.98
2022-08-27T00:23:49.792Z,1005.99
2022-08-27T00:24:49.766Z,1005.95
2022-08-27T00:25:49.749Z,1005.94
2022-08-27T00:26:49.743Z,1005.92
2022-08-27T00:27:49.729Z,1005.87
2022-08-27T00:28:49.806Z,1005.86
2022-08-27T00:29:49.714Z,1005.86
2022-08-27T00:30:49.715Z,1005.86
2022-08-27T00:31:53.217Z,1005.83
2022-08-27T00:32:49.672Z,1005.82
2022-08-27T00:33:49.669Z,1005.83
2022-08-27T00:34:49.700Z,1005.80
2022-08-27T00:35:49.664Z,1005.79
2022-08-27T00:36:49.630Z,1005.83
2022-08-27T00:37:49.623Z,1005.83
2022-08-27T00:38:49.616Z,1005.85
2022-08-27T00:39:49.650Z,1005.80
2022-08-27T00:40:49.605Z,1005.80
2022-08-27T00:41:49.580Z,1005.81
2022-08-27T00:42:49.572Z,1005.71
2022-08-27T00:43:49.562Z,1005.74
2022-08-27T00:44:49.560Z,1005.70
2022-08-27T00:45:49.594Z,1005.61
2022-08-27T00:46:49.522Z,1005.59
2022-08-27T00:47:49.506Z,1005.64
2022-08-27T00:48:49.494Z,1005.62
2022-08-27T00:49:49.498Z,1005.67
2022-08-27T00:50:49.474Z,1005.64
2022-08-27T00:51:49.741Z,1005.68
2022-08-27T00:52:49.466Z,1005.71
2022-08-27T00:53:49.437Z,1005.72
2022-08-27T00:54:49.439Z,1005.74
2022-08-27T00:55:49.420Z,1005.79
2022-08-27T00:56:51.825Z,1005.77
2022-08-27T00:57:49.396Z,1005.78
2022-08-27T00:58:49.415Z,1005.76
2022-08-27T00:59:49.390Z,1005.81
2022-08-27T01:00:49.408Z,1005.74
2022-08-27T01:01:49.358Z,1005.81
2022-08-27T01:02:49.337Z,1005.77
2022-08-27T01:03:49.331Z,1005.75
2022-08-27T01:04:49.385Z,1005.77
2022-08-27T01:05:49.304Z,1005.76
2022-08-27T01:06:49.292Z,1005.71
2022-08-27T01:07:49.278Z,1005.76
2022-08-27T01:08:49.267Z,1005.79
2022-08-27T01:09:49.801Z,1005.78
2022-08-27T01:10:49.256Z,1005.74
2022-08-27T01:11:49.238Z,1005.77
2022-08-27T01:12:53.270Z,1005.74
2022-08-27T01:13:59.796Z,1005.77
2022-08-27T01:14:50.215Z,1005.78
2022-08-27T01:15:49.191Z,1005.81
2022-08-27T01:16:49.185Z,1005.77
2022-08-27T01:17:49.172Z,1005.84
2022-08-27T01:18:49.160Z,1005.84
2022-08-27T01:19:49.159Z,1005.82
2022-08-27T01:20:49.140Z,1005.86
2022-08-27T01:21:49.127Z,1005.87
2022-08-27T01:22:49.122Z,1005.89
2022-08-27T01:23:49.106Z,1005.87
2022-08-27T01:24:49.120Z,1005.89
2022-08-27T01:25:49.082Z,1005.87
2022-08-27T01:26:49.067Z,1005.87
2022-08-27T01:27:49.054Z,1005.89
2022-08-27T01:28:49.102Z,1005.88
2022-08-27T01:29:49.049Z,1005.91
2022-08-27T01:30:49.016Z,1005.94
2022-08-27T01:31:49.076Z,1005.88
2022-08-27T01:32:49.006Z,1005.88
2022-08-27T01:33:48.988Z,1005.74
2022-08-27T01:34:49.027Z,1005.79
2022-08-27T01:35:48.973Z,1005.76
2022-08-27T01:36:48.954Z,1005.70
2022-08-27T01:37:48.944Z,1005.71
2022-08-27T01:38:48.932Z,1005.72
2022-08-27T01:39:48.921Z,1005.68
2022-08-27T01:40:48.954Z,1005.69
2022-08-27T01:41:48.902Z,1005.73
2022-08-27T01:42:48.886Z,1005.76
2022-08-27T01:43:48.875Z,1005.79
2022-08-27T01:44:48.889Z,1005.80
2022-08-27T01:45:48.854Z,1005.83
2022-08-27T01:46:48.890Z,1005.87
2022-08-27T01:47:48.830Z,1005.77
2022-08-27T01:48:48.821Z,1005.76
2022-08-27T01:49:48.812Z,1005.75
2022-08-27T01:50:48.809Z,1005.77
2022-08-27T01:51:48.788Z,1005.77
2022-08-27T01:52:48.783Z,1005.80
2022-08-27T01:53:48.764Z,1005.77
2022-08-27T01:54:48.754Z,1005.80
2022-08-27T01:55:48.757Z,1005.78
2022-08-27T01:56:48.737Z,1005.78
2022-08-27T01:57:48.721Z,1005.77
2022-08-27T01:58:48.722Z,1005.78
2022-08-27T01:59:48.697Z,1005.77
2022-08-27T02:00:48.778Z,1005.73
2022-08-27T02:01:49.761Z,1005.72
2022-08-27T02:02:48.663Z,1005.75
2022-08-27T02:03:48.659Z,1005.77
2022-08-27T02:04:48.651Z,1005.77
2022-08-27T02:05:48.649Z,1005.80
2022-08-27T02:06:48.635Z,1005.81
2022-08-27T02:07:48.613Z,1005.84
2022-08-27T02:08:48.597Z,1005.81
2022-08-27T02:09:48.583Z,1005.84
2022-08-27T02:10:48.603Z,1005.84
2022-08-27T02:11:48.581Z,1005.80
2022-08-27T02:12:48.551Z,1005.82
2022-08-27T02:13:48.543Z,1005.80
2022-08-27T02:14:48.528Z,1005.80
2022-08-27T02:15:48.573Z,1005.81
2022-08-27T02:16:52.738Z,1005.78
2022-08-27T02:17:48.518Z,1005.85
2022-08-27T02:18:48.485Z,1005.83
2022-08-27T02:19:48.474Z,1005.85
2022-08-27T02:20:48.458Z,1005.85
2022-08-27T02:21:48.466Z,1005.82
2022-08-27T02:22:48.487Z,1005.79
2022-08-27T02:23:48.444Z,1005.83
2022-08-27T02:24:48.429Z,1005.79
2022-08-27T02:25:48.454Z,1005.77
2022-08-27T02:26:48.410Z,1005.76
2022-08-27T02:27:48.380Z,1005.80
2022-08-27T02:28:48.364Z,1005.83
2022-08-27T02:29:49.004Z,1005.85
2022-08-27T02:30:48.350Z,1005.86
2022-08-27T02:31:48.410Z,1005.92
2022-08-27T02:32:48.352Z,1005.90
2022-08-27T02:33:48.315Z,1005.92
2022-08-27T02:34:48.304Z,1005.89
2022-08-27T02:35:48.297Z,1005.92
2022-08-27T02:36:48.309Z,1005.90
2022-08-27T02:37:48.278Z,1005.92
2022-08-27T02:38:48.309Z,1005.94
2022-08-27T02:39:48.283Z,1005.91
2022-08-27T02:40:48.294Z,1005.91
2022-08-27T02:41:48.302Z,1005.91
2022-08-27T02:42:48.231Z,1005.91
2022-08-27T02:43:48.200Z,1005.89
2022-08-27T02:44:48.201Z,1005.90
2022-08-27T02:45:48.182Z,1005.89
2022-08-27T02:46:48.328Z,1005.85
2022-08-27T02:47:48.157Z,1005.87
2022-08-27T02:48:48.140Z,1005.87
2022-08-27T02:49:48.135Z,1005.87
2022-08-27T02:50:48.121Z,1005.84
2022-08-27T02:51:48.122Z,1005.84
2022-08-27T02:52:48.123Z,1005.82
2022-08-27T02:53:48.086Z,1005.81
2022-08-27T02:54:48.076Z,1005.81
2022-08-27T02:55:48.076Z,1005.82
2022-08-27T02:56:48.066Z,1005.82
2022-08-27T02:57:48.047Z,1005.78
2022-08-27T02:58:48.056Z,1005.80
2022-08-27T02:59:48.028Z,1005.82
2022-08-27T03:00:48.012Z,1005.85
2022-08-27T03:01:48.145Z,1005.83
2022-08-27T03:02:48.038Z,1005.80
2022-08-27T03:03:47.975Z,1005.86
2022-08-27T03:04:47.984Z,1005.81
2022-08-27T03:05:47.972Z,1005.86
2022-08-27T03:06:47.958Z,1005.87
2022-08-27T03:07:47.931Z,1005.85
2022-08-27T03:08:52.882Z,1005.87
2022-08-27T03:09:48.907Z,1005.88
2022-08-27T03:10:47.917Z,1005.91
2022-08-27T03:11:47.898Z,1005.94
2022-08-27T03:12:47.879Z,1005.93
2022-08-27T03:13:47.868Z,1005.94
2022-08-27T03:14:47.851Z,1005.94
2022-08-27T03:15:47.885Z,1005.98
2022-08-27T03:16:47.888Z,1006.02
2022-08-27T03:17:47.822Z,1006.00
2022-08-27T03:18:47.816Z,1006.02
2022-08-27T03:19:47.795Z,1006.04
2022-08-27T03:20:47.791Z,1006.05
2022-08-27T03:21:54.664Z,1006.00
2022-08-27T03:22:48.795Z,1006.03
2022-08-27T03:23:47.756Z,1006.00
2022-08-27T03:24:47.745Z,1005.96
2022-08-27T03:25:47.728Z,1005.98
2022-08-27T03:26:52.594Z,1005.93
2022-08-27T03:27:48.707Z,1005.96
2022-08-27T03:28:47.751Z,1005.95
2022-08-27T03:29:47.683Z,1005.94
2022-08-27T03:30:47.675Z,1005.94
2022-08-27T03:31:47.772Z,1005.96
2022-08-27T03:32:47.656Z,1005.97
2022-08-27T03:33:47.646Z,1005.97
2022-08-27T03:34:47.659Z,1005.97
2022-08-27T03:35:51.521Z,1005.96
2022-08-27T03:36:47.626Z,1005.94
2022-08-27T03:37:47.593Z,1005.94
2022-08-27T03:38:47.585Z,1005.93
2022-08-27T03:39:47.576Z,1005.93
2022-08-27T03:40:47.586Z,1005.88
2022-08-27T03:41:55.349Z,1005.93
2022-08-27T03:42:48.553Z,1005.88
2022-08-27T03:43:47.530Z,1005.86
2022-08-27T03:44:47.522Z,1005.85
2022-08-27T03:45:55.061Z,1005.84
2022-08-27T03:46:48.578Z,1005.82
2022-08-27T03:47:47.496Z,1005.85
2022-08-27T03:48:47.472Z,1005.82
2022-08-27T03:49:47.462Z,1005.80
2022-08-27T03:50:47.452Z,1005.82
2022-08-27T03:51:47.444Z,1005.79
2022-08-27T03:52:47.463Z,1005.76
2022-08-27T03:53:47.418Z,1005.80
2022-08-27T03:54:47.404Z,1005.80
2022-08-27T03:55:47.394Z,1005.79
2022-08-27T03:56:47.387Z,1005.70
2022-08-27T03:57:47.389Z,1005.73
2022-08-27T03:58:47.399Z,1005.76
2022-08-27T03:59:47.352Z,1005.72
2022-08-27T04:00:47.336Z,1005.71
2022-08-27T04:01:47.415Z,1005.69
2022-08-27T04:02:47.401Z,1005.67
2022-08-27T04:03:47.305Z,1005.64
2022-08-27T04:04:47.342Z,1005.68
2022-08-27T04:05:47.281Z,1005.66
2022-08-27T04:06:47.271Z,1005.69
2022-08-27T04:07:47.281Z,1005.66
2022-08-27T04:08:47.245Z,1005.64
2022-08-27T04:09:47.239Z,1005.65
2022-08-27T04:10:47.235Z,1005.66
2022-08-27T04:11:47.213Z,1005.66
2022-08-27T04:12:47.221Z,1005.71
2022-08-27T04:13:47.194Z,1005.74
2022-08-27T04:14:47.186Z,1005.75
2022-08-27T04:15:47.178Z,1005.76
2022-08-27T04:16:47.187Z,1005.84
2022-08-27T04:17:47.165Z,1005.83
2022-08-27T04:18:47.137Z,1005.82
2022-08-27T04:19:47.125Z,1005.86
2022-08-27T04:20:47.110Z,1005.85
2022-08-27T04:21:47.107Z,1005.85
2022-08-27T04:22:47.144Z,1005.83
2022-08-27T04:23:47.085Z,1005.88
2022-08-27T04:24:47.073Z,1005.83
2022-08-27T04:25:47.060Z,1005.86
2022-08-27T04:26:47.047Z,1005.88
2022-08-27T04:27:47.049Z,1005.87
2022-08-27T04:28:48.709Z,1005.92
2022-08-27T04:29:47.029Z,1005.91
2022-08-27T04:30:47.101Z,1005.90
2022-08-27T04:31:46.994Z,1005.91
2022-08-27T04:32:46.994Z,1005.93
2022-08-27T04:33:50.884Z,1005.95
2022-08-27T04:34:46.959Z,1005.96
2022-08-27T04:35:46.982Z,1005.92
2022-08-27T04:36:46.937Z,1005.97
2022-08-27T04:37:46.938Z,1005.97
2022-08-27T04:38:46.916Z,1005.96
2022-08-27T04:39:50.239Z,1005.97
2022-08-27T04:40:46.907Z,1005.89
2022-08-27T04:41:46.930Z,1005.90
2022-08-27T04:42:46.929Z,1005.89
2022-08-27T04:43:46.860Z,1005.89
2022-08-27T04:44:46.878Z,1005.91
2022-08-27T04:45:46.835Z,1005.91
2022-08-27T04:46:49.233Z,1005.87
2022-08-27T04:47:46.863Z,1005.91
2022-08-27T04:48:46.803Z,1005.88
2022-08-27T04:49:46.792Z,1005.93
2022-08-27T04:50:46.781Z,1005.90
2022-08-27T04:51:46.769Z,1005.89
2022-08-27T04:52:46.772Z,1005.93
2022-08-27T04:53:46.773Z,1005.93
2022-08-27T04:54:46.729Z,1005.96
2022-08-27T04:55:46.721Z,1005.97
2022-08-27T04:56:46.716Z,1006.00
2022-08-27T04:57:46.716Z,1006.00
2022-08-27T04:58:46.699Z,1006.01
2022-08-27T04:59:46.701Z,1005.98
2022-08-27T05:00:46.668Z,1005.99
2022-08-27T05:01:46.747Z,1006.03
2022-08-27T05:02:46.660Z,1006.01
2022-08-27T05:03:46.631Z,1006.01
2022-08-27T05:04:46.649Z,1006.01
2022-08-27T05:05:46.631Z,1006.02
2022-08-27T05:06:46.598Z,1005.99
2022-08-27T05:07:46.602Z,1006.05
2022-08-27T05:08:46.577Z,1006.03
2022-08-27T05:09:46.565Z,1006.00
2022-08-27T05:10:46.559Z,1006.07
2022-08-27T05:11:47.161Z,1006.05
2022-08-27T05:12:46.543Z,1006.03
2022-08-27T05:13:46.525Z,1006.02
2022-08-27T05:14:46.502Z,1006.03
2022-08-27T05:15:46.587Z,1006.08
2022-08-27T05:16:46.483Z,1006.02
2022-08-27T05:17:46.501Z,1006.03
2022-08-27T05:18:48.634Z,1006.04
2022-08-27T05:19:46.453Z,1006.03
2022-08-27T05:20:46.442Z,1006.07
2022-08-27T05:21:46.431Z,1006.05
2022-08-27T05:22:46.440Z,1006.02
2022-08-27T05:23:46.433Z,1006.03
2022-08-27T05:24:50.321Z,1006.01
2022-08-27T05:25:46.386Z,1006.01
2022-08-27T05:26:46.374Z,1006.01
2022-08-27T05:27:46.361Z,1006.04
2022-08-27T05:28:46.362Z,1006.05
2022-08-27T05:29:46.339Z,1006.01
2022-08-27T05:30:49.323Z,1006.00
2022-08-27T05:31:47.317Z,1006.00
2022-08-27T05:32:46.309Z,1006.01
2022-08-27T05:33:46.311Z,1006.02
2022-08-27T05:34:46.288Z,1006.03
2022-08-27T05:35:46.279Z,1006.03
2022-08-27T05:36:48.829Z,1006.06
2022-08-27T05:37:46.257Z,1005.99
2022-08-27T05:38:46.257Z,1006.04
2022-08-27T05:39:46.233Z,1006.03
2022-08-27T05:40:46.218Z,1006.03
2022-08-27T05:41:46.210Z,1006.06
2022-08-27T05:42:50.057Z,1006.03
2022-08-27T05:43:50.235Z,1006.05
2022-08-27T05:44:46.191Z,1006.05
2022-08-27T05:45:46.163Z,1006.05
2022-08-27T05:46:46.153Z,1006.01
2022-08-27T05:47:46.148Z,1006.02
2022-08-27T05:48:46.142Z,1006.03
2022-08-27T05:49:46.118Z,1005.95
2022-08-27T05:50:46.118Z,1006.00
2022-08-27T05:51:46.196Z,1005.96
2022-08-27T05:52:46.093Z,1005.94
2022-08-27T05:53:46.191Z,1006.00
2022-08-27T05:54:46.220Z,1006.00
2022-08-27T05:55:46.064Z,1005.95
2022-08-27T05:56:46.072Z,1006.01
2022-08-27T05:57:46.041Z,1006.03
2022-08-27T05:58:46.031Z,1006.04
2022-08-27T05:59:46.011Z,1006.04
2022-08-27T06:00:46.063Z,1006.10
2022-08-27T06:01:46.007Z,1006.09
2022-08-27T06:02:46.011Z,1006.10
2022-08-27T06:03:45.999Z,1006.12
2022-08-27T06:04:45.957Z,1006.12
2022-08-27T06:05:45.957Z,1006.19
2022-08-27T06:06:46.023Z,1006.18
2022-08-27T06:07:45.916Z,1006.20
2022-08-27T06:08:45.938Z,1006.18
2022-08-27T06:09:45.899Z,1006.14
2022-08-27T06:10:45.880Z,1006.15
2022-08-27T06:11:45.865Z,1006.15
2022-08-27T06:12:45.861Z,1006.19
2022-08-27T06:13:45.879Z,1006.16
2022-08-27T06:14:45.875Z,1006.23
2022-08-27T06:15:45.891Z,1006.22
2022-08-27T06:16:45.812Z,1006.15
2022-08-27T06:17:45.809Z,1006.19
2022-08-27T06:18:45.809Z,1006.25
2022-08-27T06:19:45.803Z,1006.19
2022-08-27T06:20:45.802Z,1006.24
2022-08-27T06:21:45.763Z,1006.15
2022-08-27T06:22:45.747Z,1006.21
2022-08-27T06:23:45.747Z,1006.22
2022-08-27T06:24:45.725Z,1006.21
2022-08-27T06:25:45.709Z,1006.16
2022-08-27T06:26:45.709Z,1006.22
2022-08-27T06:27:45.690Z,1006.25
2022-08-27T06:28:45.698Z,1006.21
2022-08-27T06:29:45.669Z,1006.22
2022-08-27T06:30:45.737Z,1006.19
2022-08-27T06:31:45.644Z,1006.18
2022-08-27T06:32:45.645Z,1006.21
2022-08-27T06:33:45.642Z,1006.17
2022-08-27T06:34:45.622Z,1006.20
2022-08-27T06:35:45.607Z,1006.25
2022-08-27T06:36:45.585Z,1006.27
2022-08-27T06:37:45.581Z,1006.23
2022-08-27T06:38:45.621Z,1006.32
2022-08-27T06:39:45.557Z,1006.31
2022-08-27T06:40:45.555Z,1006.27
2022-08-27T06:41:45.619Z,1006.31
2022-08-27T06:42:45.521Z,1006.31
2022-08-27T06:43:45.530Z,1006.31
2022-08-27T06:44:45.517Z,1006.32
2022-08-27T06:45:45.491Z,1006.33
2022-08-27T06:46:45.594Z,1006.33
2022-08-27T06:47:45.468Z,1006.29
2022-08-27T06:48:45.475Z,1006.31
2022-08-27T06:49:46.547Z,1006.35
2022-08-27T06:50:45.437Z,1006.31
2022-08-27T06:51:45.428Z,1006.30
2022-08-27T06:52:45.427Z,1006.34
2022-08-27T06:53:45.441Z,1006.36
2022-08-27T06:54:45.417Z,1006.35
2022-08-27T06:55:45.381Z,1006.39
2022-08-27T06:56:45.375Z,1006.37
2022-08-27T06:57:45.434Z,1006.39
2022-08-27T06:58:45.381Z,1006.37
2022-08-27T06:59:45.337Z,1006.41
2022-08-27T07:00:48.870Z,1006.38
2022-08-27T07:01:45.380Z,1006.42
2022-08-27T07:02:45.372Z,1006.43
2022-08-27T07:03:45.316Z,1006.42
2022-08-27T07:04:45.291Z,1006.48
2022-08-27T07:05:45.264Z,1006.42
2022-08-27T07:06:45.254Z,1006.48
2022-08-27T07:07:48.659Z,1006.44
2022-08-27T07:08:45.232Z,1006.47
2022-08-27T07:09:46.296Z,1006.48
2022-08-27T07:10:45.209Z,1006.49
2022-08-27T07:11:45.199Z,1006.51
2022-08-27T07:12:45.181Z,1006.52
2022-08-27T07:13:45.194Z,1006.52
2022-08-27T07:14:45.182Z,1006.55
2022-08-27T07:15:45.298Z,1006.56
2022-08-27T07:16:45.324Z,1006.58
2022-08-27T07:17:45.132Z,1006.57
2022-08-27T07:18:45.122Z,1006.60
2022-08-27T07:19:45.124Z,1006.59
2022-08-27T07:20:45.107Z,1006.64
2022-08-27T07:21:45.138Z,1006.62
2022-08-27T07:22:45.075Z,1006.60
2022-08-27T07:23:45.076Z,1006.61
2022-08-27T07:24:45.106Z,1006.61
2022-08-27T07:25:45.054Z,1006.63
2022-08-27T07:26:45.051Z,1006.60
2022-08-27T07:27:45.079Z,1006.61
2022-08-27T07:28:45.023Z,1006.55
2022-08-27T07:29:45.012Z,1006.56
2022-08-27T07:30:45.159Z,1006.52
2022-08-27T07:31:44.975Z,1006.53
2022-08-27T07:32:44.962Z,1006.51
2022-08-27T07:33:50.778Z,1006.55
2022-08-27T07:34:45.952Z,1006.55
2022-08-27T07:35:44.935Z,1006.57
2022-08-27T07:36:44.915Z,1006.54
2022-08-27T07:37:45.115Z,1006.61
2022-08-27T07:38:44.892Z,1006.57
2022-08-27T07:39:45.900Z,1006.61
2022-08-27T07:40:44.902Z,1006.58
2022-08-27T07:41:44.862Z,1006.61
2022-08-27T07:42:44.848Z,1006.61
2022-08-27T07:43:44.836Z,1006.59
2022-08-27T07:44:44.845Z,1006.57
2022-08-27T07:45:44.866Z,1006.54
2022-08-27T07:46:47.897Z,1006.53
2022-08-27T07:47:44.790Z,1006.56
2022-08-27T07:48:44.780Z,1006.49
2022-08-27T07:49:44.782Z,1006.52
2022-08-27T07:50:44.763Z,1006.50
2022-08-27T07:51:44.748Z,1006.48
2022-08-27T07:52:44.734Z,1006.48
2022-08-27T07:53:44.725Z,1006.45
2022-08-27T07:54:44.731Z,1006.48
2022-08-27T07:55:44.705Z,1006.40
2022-08-27T07:56:54.790Z,1006.44
2022-08-27T07:57:45.708Z,1006.44
2022-08-27T07:58:44.673Z,1006.48
2022-08-27T07:59:44.674Z,1006.44
2022-08-27T08:00:44.647Z,1006.48
2022-08-27T08:01:44.680Z,1006.52
2022-08-27T08:02:44.728Z,1006.52
2022-08-27T08:03:44.610Z,1006.55
2022-08-27T08:04:44.618Z,1006.56
2022-08-27T08:05:44.593Z,1006.56
2022-08-27T08:06:44.572Z,1006.58
2022-08-27T08:07:44.564Z,1006.54
2022-08-27T08:08:44.559Z,1006.54
2022-08-27T08:09:44.557Z,1006.55
2022-08-27T08:10:44.529Z,1006.54
2022-08-27T08:11:44.518Z,1006.52
2022-08-27T08:12:44.510Z,1006.56
2022-08-27T08:13:44.501Z,1006.57
2022-08-27T08:14:44.500Z,1006.61
2022-08-27T08:15:44.478Z,1006.64
2022-08-27T08:16:44.505Z,1006.66
2022-08-27T08:17:44.453Z,1006.66
2022-08-27T08:18:44.436Z,1006.68
2022-08-27T08:19:53.576Z,1006.73
2022-08-27T08:20:57.728Z,1006.70
2022-08-27T08:21:45.407Z,1006.69
2022-08-27T08:22:44.399Z,1006.74
2022-08-27T08:23:44.386Z,1006.75
2022-08-27T08:24:44.387Z,1006.72
2022-08-27T08:25:44.363Z,1006.77
2022-08-27T08:26:44.362Z,1006.77
2022-08-27T08:27:44.332Z,1006.72
2022-08-27T08:28:44.327Z,1006.74
2022-08-27T08:29:44.331Z,1006.75
2022-08-27T08:30:44.422Z,1006.75
2022-08-27T08:31:44.292Z,1006.71
2022-08-27T08:32:45.282Z,1006.69
2022-08-27T08:33:44.275Z,1006.66
2022-08-27T08:34:44.276Z,1006.64
2022-08-27T08:35:44.246Z,1006.60
2022-08-27T08:36:44.236Z,1006.65
2022-08-27T08:37:45.230Z,1006.59
2022-08-27T08:38:44.214Z,1006.58
2022-08-27T08:39:44.213Z,1006.62
2022-08-27T08:40:44.200Z,1006.57
2022-08-27T08:41:44.183Z,1006.50
2022-08-27T08:42:44.875Z,1006.51
2022-08-27T08:43:45.159Z,1006.43
2022-08-27T08:44:44.160Z,1006.47
2022-08-27T08:45:44.219Z,1006.50
2022-08-27T08:46:44.122Z,1006.41
2022-08-27T08:47:44.114Z,1006.40
2022-08-27T08:48:44.108Z,1006.41
2022-08-27T08:49:44.109Z,1006.38
2022-08-27T08:50:44.076Z,1006.34
2022-08-27T08:51:44.062Z,1006.35
2022-08-27T08:52:44.060Z,1006.34
2022-08-27T08:53:44.041Z,1006.32
2022-08-27T08:54:44.054Z,1006.32
2022-08-27T08:55:44.023Z,1006.32
2022-08-27T08:56:44.007Z,1006.34
2022-08-27T08:57:43.999Z,1006.32
2022-08-27T08:58:43.985Z,1006.36
2022-08-27T08:59:43.990Z,1006.33
2022-08-27T09:00:43.965Z,1006.33
2022-08-27T09:01:43.977Z,1006.36
2022-08-27T09:02:43.943Z,1006.33
2022-08-27T09:03:44.014Z,1006.35
2022-08-27T09:04:43.930Z,1006.37
2022-08-27T09:05:43.908Z,1006.33
2022-08-27T09:06:43.900Z,1006.37
2022-08-27T09:07:43.880Z,1006.37
2022-08-27T09:08:44.204Z,1006.36
2022-08-27T09:09:43.883Z,1006.37
2022-08-27T09:10:43.854Z,1006.31
2022-08-27T09:11:43.841Z,1006.34
2022-08-27T09:12:43.826Z,1006.34
2022-08-27T09:13:43.817Z,1006.34
2022-08-27T09:14:46.291Z,1006.33
2022-08-27T09:15:43.790Z,1006.32
2022-08-27T09:16:43.974Z,1006.30
2022-08-27T09:17:43.771Z,1006.31
2022-08-27T09:18:43.755Z,1006.23
2022-08-27T09:19:43.743Z,1006.23
2022-08-27T09:20:43.757Z,1006.18
2022-08-27T09:21:43.718Z,1006.19
2022-08-27T09:22:43.714Z,1006.15
2022-08-27T09:23:43.696Z,1006.13
2022-08-27T09:24:43.694Z,1006.09
2022-08-27T09:25:43.696Z,1006.10
2022-08-27T09:26:43.671Z,1006.10
2022-08-27T09:27:43.653Z,1006.10
2022-08-27T09:28:43.642Z,1006.08
2022-08-27T09:29:43.631Z,1006.07
2022-08-27T09:30:43.694Z,1006.07
2022-08-27T09:31:43.622Z,1006.05
2022-08-27T09:32:43.593Z,1006.05
2022-08-27T09:33:55.883Z,1006.10
2022-08-27T09:34:44.572Z,1006.11
2022-08-27T09:35:43.575Z,1006.10
2022-08-27T09:36:43.553Z,1006.15
2022-08-27T09:37:43.542Z,1006.16
2022-08-27T09:38:43.533Z,1006.15
2022-08-27T09:39:44.516Z,1006.18
2022-08-27T09:40:43.609Z,1006.22
2022-08-27T09:41:43.494Z,1006.23
2022-08-27T09:42:43.479Z,1006.26
2022-08-27T09:43:43.491Z,1006.27
2022-08-27T09:44:43.468Z,1006.28
2022-08-27T09:45:43.494Z,1006.30
2022-08-27T09:46:43.446Z,1006.33
2022-08-27T09:47:43.421Z,1006.37
2022-08-27T09:48:43.416Z,1006.40
2022-08-27T09:49:43.404Z,1006.44
2022-08-27T09:50:44.039Z,1006.45
2022-08-27T09:51:43.375Z,1006.48
2022-08-27T09:52:43.371Z,1006.51
2022-08-27T09:53:43.358Z,1006.55
2022-08-27T09:54:43.344Z,1006.56
2022-08-27T09:55:43.351Z,1006.55
2022-08-27T09:56:43.337Z,1006.59
2022-08-27T09:57:43.314Z,1006.59
2022-08-27T09:58:43.296Z,1006.62
2022-08-27T09:59:43.289Z,1006.64
2022-08-27T10:00:43.335Z,1006.69
2022-08-27T10:01:43.263Z,1006.71
2022-08-27T10:02:43.257Z,1006.75
2022-08-27T10:03:43.289Z,1006.72
2022-08-27T10:04:50.627Z,1006.75
2022-08-27T10:05:44.233Z,1006.81
2022-08-27T10:06:43.210Z,1006.77
2022-08-27T10:07:43.197Z,1006.77
2022-08-27T10:08:43.204Z,1006.78
2022-08-27T10:09:43.169Z,1006.78
2022-08-27T10:10:43.177Z,1006.78
2022-08-27T10:11:43.156Z,1006.79
2022-08-27T10:12:43.140Z,1006.78
2022-08-27T10:13:43.128Z,1006.77
2022-08-27T10:14:43.117Z,1006.81
2022-08-27T10:15:46.569Z,1006.82
2022-08-27T10:16:44.151Z,1006.82
2022-08-27T10:17:43.084Z,1006.84
2022-08-27T10:18:43.074Z,1006.84
2022-08-27T10:19:43.067Z,1006.82
2022-08-27T10:20:43.054Z,1006.83
2022-08-27T10:21:43.052Z,1006.87
2022-08-27T10:22:43.025Z,1006.82
2022-08-27T10:23:43.014Z,1006.81
2022-08-27T10:24:43.005Z,1006.79
2022-08-27T10:25:42.990Z,1006.86
2022-08-27T10:26:43.008Z,1006.84
2022-08-27T10:27:42.967Z,1006.84
2022-08-27T10:28:44.137Z,1006.85
2022-08-27T10:29:42.948Z,1006.83
2022-08-27T10:30:42.935Z,1006.81
2022-08-27T10:31:42.983Z,1006.81
2022-08-27T10:32:42.915Z,1006.88
2022-08-27T10:33:42.904Z,1006.86
2022-08-27T10:34:43.288Z,1006.88
2022-08-27T10:35:46.862Z,1006.92
2022-08-27T10:36:43.880Z,1006.89
2022-08-27T10:37:42.856Z,1006.95
2022-08-27T10:38:45.025Z,1006.91
2022-08-27T10:39:42.832Z,1006.94
2022-08-27T10:40:42.904Z,1006.90
2022-08-27T10:41:42.821Z,1006.91
2022-08-27T10:42:42.794Z,1006.93
2022-08-27T10:43:42.793Z,1006.94
2022-08-27T10:44:42.775Z,1006.92
2022-08-27T10:45:42.934Z,1006.91
2022-08-27T10:46:49.937Z,1006.91
2022-08-27T10:47:43.735Z,1006.91
2022-08-27T10:48:42.730Z,1006.89
2022-08-27T10:49:42.716Z,1006.94
2022-08-27T10:50:42.716Z,1006.93
2022-08-27T10:51:42.717Z,1006.92
2022-08-27T10:52:42.686Z,1006.91
2022-08-27T10:53:42.679Z,1006.91
2022-08-27T10:54:42.663Z,1006.93
2022-08-27T10:55:42.648Z,1006.95
2022-08-27T10:56:42.665Z,1006.92
2022-08-27T10:57:56.505Z,1006.83
2022-08-27T10:58:43.615Z,1006.86
2022-08-27T10:59:42.601Z,1006.90
2022-08-27T11:00:42.624Z,1006.88
2022-08-27T11:01:42.595Z,1006.91
2022-08-27T11:02:42.567Z,1006.97
2022-08-27T11:03:42.555Z,1006.87
2022-08-27T11:04:42.551Z,1006.92
2022-08-27T11:05:42.552Z,1006.89
2022-08-27T11:06:42.538Z,1006.91
2022-08-27T11:07:42.510Z,1006.95
2022-08-27T11:08:42.501Z,1006.93
2022-08-27T11:09:42.489Z,1006.93
2022-08-27T11:10:42.480Z,1006.93
2022-08-27T11:12:12.929Z,1006.96
2022-08-27T11:12:43.455Z,1006.96
2022-08-27T11:13:42.527Z,1006.97
2022-08-27T11:14:42.431Z,1006.98
2022-08-27T11:15:42.417Z,1006.95
2022-08-27T11:16:45.605Z,1006.94
2022-08-27T11:17:42.430Z,1006.94
2022-08-27T11:18:42.392Z,1006.95
2022-08-27T11:19:42.375Z,1006.97
2022-08-27T11:20:42.378Z,1006.97
2022-08-27T11:21:42.369Z,1006.93
2022-08-27T11:22:42.339Z,1006.96
2022-08-27T11:23:42.323Z,1006.89
2022-08-27T11:24:42.314Z,1006.85
2022-08-27T11:25:42.302Z,1006.91
2022-08-27T11:26:42.324Z,1006.88
2022-08-27T11:27:42.283Z,1006.87
2022-08-27T11:28:42.270Z,1006.84
2022-08-27T11:29:42.259Z,1006.81
2022-08-27T11:30:42.250Z,1006.82
2022-08-27T11:31:42.353Z,1006.84
2022-08-27T11:32:42.245Z,1006.82
2022-08-27T11:33:46.021Z,1006.83
2022-08-27T11:34:42.204Z,1006.84
2022-08-27T11:35:42.192Z,1006.86
2022-08-27T11:36:42.195Z,1006.82
2022-08-27T11:37:42.186Z,1006.86
2022-08-27T11:38:42.159Z,1006.84
2022-08-27T11:39:42.146Z,1006.81
2022-08-27T11:40:42.222Z,1006.86
2022-08-27T11:41:45.390Z,1006.88
2022-08-27T11:42:42.158Z,1006.89
2022-08-27T11:43:42.096Z,1006.88
2022-08-27T11:44:42.095Z,1006.87
2022-08-27T11:45:43.606Z,1006.84
2022-08-27T11:46:42.084Z,1006.84
2022-08-27T11:47:42.073Z,1006.86
2022-08-27T11:48:42.045Z,1006.84
2022-08-27T11:49:42.040Z,1006.88
2022-08-27T11:50:42.021Z,1006.87
2022-08-27T11:51:42.013Z,1006.85
2022-08-27T11:52:42.013Z,1006.85
2022-08-27T11:53:51.899Z,1006.78
2022-08-27T11:54:42.976Z,1006.82
2022-08-27T11:55:41.960Z,1006.83
2022-08-27T11:56:41.954Z,1006.86
2022-08-27T11:57:41.959Z,1006.84
2022-08-27T11:58:53.344Z,1006.85
2022-08-27T11:59:42.918Z,1006.86
2022-08-27T12:00:41.922Z,1006.82
2022-08-27T12:01:41.897Z,1006.87
2022-08-27T12:02:41.902Z,1006.81
2022-08-27T12:03:41.971Z,1006.82
2022-08-27T12:04:41.931Z,1006.87
2022-08-27T12:05:41.851Z,1006.84